Time;durP1;ratioP1;P1;durP2;ratioP2;P2;SDS_P1;SDS_P2;PMS_P1;PMS_P2;Temp;Humidity;BMP_temperature;BMP_pressure;BME280_temperature;BME280_humidity;BME280_pressure;Samples;Min_cycle;Max_cycle;Signal;HPM_P1;HPM_P2
2021/08/19 00:02:18;;;;;;;10.50;6.50;;;;;;;16.72;84.46;101145.34;5010542;28;20041;-73
2021/08/19 00:04:44;;;;;;;14.15;7.80;;;;;;;16.65;84.56;101145.31;4975123;28;20065;-74
2021/08/19 00:07:10;;;;;;;11.70;6.82;;;;;;;16.67;84.47;101145.09;4997000;28;20096;-73
2021/08/19 00:09:37;;;;;;;12.25;6.95;;;;;;;16.64;84.66;101141.06;4982749;28;20037;-74
2021/08/19 00:12:08;;;;;;;15.60;7.07;;;;;;;16.65;84.74;101140.06;5004682;28;20401;-76
2021/08/19 00:14:35;;;;;;;11.40;6.80;;;;;;;16.75;84.50;101142.38;4999888;28;20034;-74
2021/08/19 00:17:01;;;;;;;14.07;6.95;;;;;;;16.73;84.49;101142.53;4993071;28;20053;-75
2021/08/19 00:19:26;;;;;;;17.17;7.25;;;;;;;16.79;84.16;101133.13;4995604;28;20029;-73
2021/08/19 00:21:52;;;;;;;17.17;6.97;;;;;;;16.78;84.01;101138.53;4999283;28;20377;-75
2021/08/19 00:24:17;;;;;;;13.45;7.15;;;;;;;16.74;84.14;101136.31;5002775;28;20038;-73
2021/08/19 00:26:43;;;;;;;11.70;7.07;;;;;;;16.64;84.59;101127.97;4985887;28;20045;-75
2021/08/19 00:29:08;;;;;;;15.15;6.80;;;;;;;16.67;84.32;101132.84;4965804;28;20096;-74
2021/08/19 00:31:34;;;;;;;12.52;6.75;;;;;;;16.71;84.07;101135.88;4998986;28;20064;-74
2021/08/19 00:33:59;;;;;;;15.75;7.32;;;;;;;16.76;84.14;101136.09;4976302;28;20026;-73
2021/08/19 00:36:25;;;;;;;14.38;6.85;;;;;;;16.86;83.52;101128.00;5008312;28;20446;-72
2021/08/19 00:38:50;;;;;;;15.40;7.15;;;;;;;16.80;83.83;101126.91;4992215;28;20041;-73
2021/08/19 00:41:16;;;;;;;11.85;7.38;;;;;;;16.81;83.73;101131.13;4995463;28;20524;-74
2021/08/19 00:43:41;;;;;;;12.82;6.30;;;;;;;16.70;84.26;101131.63;4965293;28;20100;-73
2021/08/19 00:46:30;;;;;;;14.48;6.60;;;;;;;16.62;84.64;101124.72;4982765;28;20394;-74
2021/08/19 00:49:14;;;;;;;10.75;6.65;;;;;;;16.76;84.26;101119.59;5001118;28;20080;-74
2021/08/19 00:51:51;;;;;;;13.13;6.65;;;;;;;16.76;84.40;101116.97;5000043;28;20045;-73
2021/08/19 00:54:26;;;;;;;12.35;7.40;;;;;;;16.73;84.23;101113.75;4998095;28;20112;-72
2021/08/19 00:56:56;;;;;;;10.93;6.47;;;;;;;16.73;84.13;101116.34;4995547;28;20131;-73
2021/08/19 00:59:23;;;;;;;17.63;7.78;;;;;;;16.74;83.92;101117.16;4997463;28;20038;-74
2021/08/19 01:01:53;;;;;;;29.45;9.43;;;;;;;16.73;84.01;101120.78;4976017;28;20447;-74
2021/08/19 01:04:18;;;;;;;18.27;7.07;;;;;;;16.72;84.01;101119.16;4966718;28;20093;-75
2021/08/19 01:06:44;;;;;;;10.88;6.18;;;;;;;16.72;83.91;101113.94;5004607;28;20522;-74
2021/08/19 01:09:10;;;;;;;18.67;6.88;;;;;;;16.71;84.03;101115.75;5005984;28;20546;-74
2021/08/19 01:11:39;;;;;;;13.00;8.43;;;;;;;16.69;83.84;101116.94;4995752;28;20041;-74
2021/08/19 01:14:05;;;;;;;16.98;7.28;;;;;;;16.78;83.72;101107.94;4978567;28;20042;-73
2021/08/19 01:16:31;;;;;;;15.23;6.85;;;;;;;16.67;84.04;101109.28;5001186;28;20038;-74
2021/08/19 01:18:56;;;;;;;15.65;6.38;;;;;;;16.77;83.55;101116.00;5008092;28;20041;-73
2021/08/19 01:21:22;;;;;;;15.38;6.82;;;;;;;16.67;83.63;101109.28;4974466;28;20031;-74
2021/08/19 01:23:48;;;;;;;12.90;6.53;;;;;;;16.77;83.30;101105.53;4996271;28;20034;-73
2021/08/19 01:26:16;;;;;;;13.20;7.13;;;;;;;16.83;83.05;101107.41;5001838;28;20041;-74
2021/08/19 01:28:44;;;;;;;13.75;6.35;;;;;;;16.75;83.25;101100.47;5003385;28;20236;-73
2021/08/19 01:31:15;;;;;;;13.27;6.88;;;;;;;16.74;83.44;101104.91;5002257;28;20030;-74
2021/08/19 01:33:42;;;;;;;12.48;6.20;;;;;;;16.81;83.03;101107.56;4986096;28;20049;-74
2021/08/19 01:36:08;;;;;;;13.15;7.05;;;;;;;16.87;82.71;101106.81;5000813;28;20095;-74
2021/08/19 01:38:35;;;;;;;13.25;6.13;;;;;;;16.78;83.32;101104.50;5008507;28;20479;-74
2021/08/19 01:41:01;;;;;;;9.32;5.65;;;;;;;16.80;83.26;101105.94;4982194;28;20048;-73
2021/08/19 01:43:31;;;;;;;14.13;6.97;;;;;;;16.80;82.90;101113.81;4990995;28;20045;-74
2021/08/19 01:46:01;;;;;;;14.88;6.47;;;;;;;16.70;83.45;101111.50;4983488;28;20179;-72
2021/08/19 01:48:27;;;;;;;10.85;6.22;;;;;;;16.70;83.38;101111.50;4987978;28;20038;-74
2021/08/19 01:50:53;;;;;;;11.75;6.07;;;;;;;16.65;83.72;101107.81;4995569;28;20525;-74
2021/08/19 01:53:19;;;;;;;9.02;5.95;;;;;;;16.71;83.90;101117.56;4999524;28;20404;-72
2021/08/19 01:55:45;;;;;;;17.15;7.38;;;;;;;16.71;83.83;101099.22;4997502;28;20042;-74
2021/08/19 01:58:10;;;;;;;11.80;6.63;;;;;;;16.70;84.06;101108.06;4982693;28;20417;-74
2021/08/19 02:00:36;;;;;;;14.90;6.45;;;;;;;16.69;84.76;101111.69;5001434;28;20026;-76
2021/08/19 02:03:03;;;;;;;14.70;6.30;;;;;;;16.57;85.31;101114.00;4996897;28;20484;-74
2021/08/19 02:05:29;;;;;;;13.85;6.68;;;;;;;16.55;85.56;101110.75;4980993;28;20602;-75
2021/08/19 02:07:55;;;;;;;11.85;6.40;;;;;;;16.58;85.58;101113.00;4993777;28;20026;-75
2021/08/19 02:10:21;;;;;;;13.25;6.68;;;;;;;16.57;85.55;101118.44;5004879;28;20057;-75
2021/08/19 02:12:47;;;;;;;18.60;7.22;;;;;;;16.50;86.20;101113.94;4995406;28;20029;-75
2021/08/19 02:15:13;;;;;;;13.18;6.30;;;;;;;16.62;85.86;101114.25;4999107;28;20598;-74
2021/08/19 02:17:39;;;;;;;14.02;7.07;;;;;;;16.59;86.04;101117.22;4983807;28;20030;-74
2021/08/19 02:20:05;;;;;;;15.88;7.70;;;;;;;16.52;86.33;101116.38;5006990;28;20099;-74
2021/08/19 02:22:31;;;;;;;13.70;6.80;;;;;;;16.46;86.70;101122.34;5010981;28;20093;-75
2021/08/19 02:24:56;;;;;;;17.05;6.40;;;;;;;16.43;87.04;101120.94;5012642;28;20038;-76
2021/08/19 02:27:22;;;;;;;16.10;7.22;;;;;;;16.52;87.10;101124.25;5000726;28;20041;-75
2021/08/19 02:29:48;;;;;;;15.50;7.20;;;;;;;16.48;87.03;101117.72;4990587;28;20033;-76
2021/08/19 02:32:15;;;;;;;12.30;7.43;;;;;;;16.41;87.35;101114.28;5002396;28;20034;-76
2021/08/19 02:34:40;;;;;;;12.50;6.50;;;;;;;16.38;87.80;101114.63;4980366;28;20030;-76
2021/08/19 02:37:05;;;;;;;11.60;7.80;;;;;;;16.30;88.30;101113.75;5003325;28;20145;-75
2021/08/19 02:39:31;;;;;;;15.82;8.05;;;;;;;16.31;88.48;101114.56;4988664;28;20030;-75
2021/08/19 02:41:56;;;;;;;15.32;7.85;;;;;;;16.34;88.45;101109.75;4989299;28;20033;-75
2021/08/19 02:44:22;;;;;;;15.75;7.50;;;;;;;16.29;88.77;101109.53;5008695;28;20038;-75
2021/08/19 02:46:47;;;;;;;11.63;7.07;;;;;;;16.25;88.91;101099.59;5006823;28;20046;-75
2021/08/19 02:49:13;;;;;;;16.17;7.55;;;;;;;16.34;88.38;101098.50;4988978;28;20092;-75
2021/08/19 02:51:38;;;;;;;16.00;7.78;;;;;;;16.38;88.54;101096.31;5007290;28;20038;-75
2021/08/19 02:54:04;;;;;;;13.63;7.32;;;;;;;16.25;88.82;101097.78;5018722;28;20037;-76
2021/08/19 02:56:29;;;;;;;12.52;8.18;;;;;;;16.23;89.29;101101.59;4993497;28;20029;-75
2021/08/19 02:58:55;;;;;;;13.32;7.45;;;;;;;16.26;89.13;101096.00;4988185;28;20435;-75
2021/08/19 03:01:20;;;;;;;12.68;7.95;;;;;;;16.35;88.52;101103.53;5005490;28;20487;-75
2021/08/19 03:03:46;;;;;;;13.35;8.48;;;;;;;16.33;88.34;101094.25;4983908;28;20058;-77
2021/08/19 03:06:11;;;;;;;13.93;7.97;;;;;;;16.24;88.80;101095.38;4972890;28;20038;-75
2021/08/19 03:08:36;;;;;;;10.52;6.63;;;;;;;16.20;89.05;101094.09;5006003;28;20045;-75
2021/08/19 03:11:02;;;;;;;18.67;8.43;;;;;;;16.17;89.29;101097.13;4987845;28;20403;-75
2021/08/19 03:13:27;;;;;;;12.30;7.55;;;;;;;16.23;89.00;101089.31;4977559;28;20037;-75
2021/08/19 03:15:53;;;;;;;16.70;7.38;;;;;;;16.22;89.12;101094.72;4985725;28;20042;-75
2021/08/19 03:18:18;;;;;;;16.77;7.57;;;;;;;16.22;89.36;101097.34;4984015;28;20038;-75
2021/08/19 03:20:44;;;;;;;11.35;7.22;;;;;;;16.22;88.76;101095.56;4991335;28;20035;-76
2021/08/19 03:23:09;;;;;;;13.70;6.75;;;;;;;16.20;89.18;101097.56;4998503;28;20030;-76
2021/08/19 03:25:35;;;;;;;16.45;7.25;;;;;;;16.22;88.92;101095.56;4980130;28;20065;-75
2021/08/19 03:28:02;;;;;;;12.63;6.88;;;;;;;16.18;89.16;101096.09;5000926;28;20076;-76
2021/08/19 03:30:28;;;;;;;14.10;7.45;;;;;;;16.15;89.24;101099.91;5005986;28;20026;-76
2021/08/19 03:32:53;;;;;;;16.67;7.78;;;;;;;16.20;89.04;101097.56;4982323;28;20037;-76
2021/08/19 03:35:19;;;;;;;11.07;6.65;;;;;;;16.15;89.27;101095.47;5004014;28;20547;-75
2021/08/19 03:37:45;;;;;;;15.75;7.55;;;;;;;16.37;88.16;101094.69;5003260;28;21843;-76
2021/08/19 03:40:11;;;;;;;15.88;8.07;;;;;;;16.32;88.05;101088.19;4978725;28;20669;-77
2021/08/19 03:42:37;;;;;;;13.00;7.20;;;;;;;16.35;87.39;101093.06;5004218;28;20026;-75
2021/08/19 03:45:05;;;;;;;14.05;7.70;;;;;;;16.23;88.13;101085.91;4989555;28;20034;-76
2021/08/19 03:47:31;;;;;;;19.80;9.10;;;;;;;16.26;87.52;101080.31;4976818;28;20034;-76
2021/08/19 03:49:56;;;;;;;17.75;8.55;;;;;;;16.21;88.17;101087.91;4974652;28;20048;-76
2021/08/19 03:52:22;;;;;;;20.40;8.85;;;;;;;16.15;88.53;101084.22;4977352;28;20057;-76
2021/08/19 03:54:47;;;;;;;15.43;8.32;;;;;;;16.17;88.00;101076.19;4991524;28;20038;-76
2021/08/19 03:57:13;;;;;;;16.40;9.43;;;;;;;16.22;88.01;101089.50;4989768;28;20034;-76
2021/08/19 03:59:38;;;;;;;18.90;7.75;;;;;;;16.15;88.21;101084.22;4995404;28;20076;-76
2021/08/19 04:02:04;;;;;;;19.83;8.75;;;;;;;16.09;88.77;101079.75;4979697;28;20037;-76
2021/08/19 04:04:30;;;;;;;17.40;8.95;;;;;;;16.12;88.81;101079.34;5004745;28;20044;-76
2021/08/19 04:06:55;;;;;;;13.63;7.97;;;;;;;16.13;88.39;101079.16;4986288;28;20040;-76
2021/08/19 04:09:21;;;;;;;15.40;6.97;;;;;;;16.09;88.57;101088.38;5001458;28;20036;-76
2021/08/19 04:11:46;;;;;;;14.50;8.45;;;;;;;16.08;88.51;101084.13;4988075;28;20038;-75
2021/08/19 04:14:12;;;;;;;15.13;7.88;;;;;;;16.11;87.97;101089.00;4976450;28;20073;-76
2021/08/19 04:16:37;;;;;;;12.20;7.25;;;;;;;16.17;87.74;101087.44;4986735;28;20022;-78
2021/08/19 04:19:03;;;;;;;13.95;7.25;;;;;;;16.07;87.82;101086.97;4983814;28;20046;-77
2021/08/19 04:21:29;;;;;;;16.10;7.28;;;;;;;16.11;87.90;101088.19;4987576;28;20104;-78
2021/08/19 04:23:54;;;;;;;16.10;7.95;;;;;;;16.11;87.75;101094.25;5016150;28;20041;-77
2021/08/19 04:26:20;;;;;;;14.93;7.35;;;;;;;16.18;87.64;101089.09;4995352;28;20141;-76
2021/08/19 04:28:45;;;;;;;11.02;6.65;;;;;;;16.12;87.73;101090.66;5001101;28;20052;-76
2021/08/19 04:31:11;;;;;;;11.85;6.18;;;;;;;16.10;87.97;101090.00;4977208;28;20046;-77
2021/08/19 04:33:36;;;;;;;10.70;7.25;;;;;;;16.04;87.93;101082.88;5004951;28;20029;-77
2021/08/19 04:36:03;;;;;;;11.77;6.30;;;;;;;15.99;88.21;101080.00;4981332;28;20495;-76
2021/08/19 04:38:29;;;;;;;11.93;6.78;;;;;;;16.02;88.22;101084.06;4975629;28;20326;-76
2021/08/19 04:40:55;;;;;;;12.98;6.72;;;;;;;15.94;88.19;101079.78;4990536;28;20018;-77
2021/08/19 04:43:21;;;;;;;13.80;6.53;;;;;;;16.02;87.78;101087.50;4988197;28;20522;-77
2021/08/19 04:45:48;;;;;;;12.13;6.53;;;;;;;16.09;87.38;101090.19;4985067;28;20116;-76
2021/08/19 04:48:13;;;;;;;11.88;6.45;;;;;;;16.05;87.35;101094.16;4984220;28;20053;-76
2021/08/19 04:50:39;;;;;;;10.00;5.88;;;;;;;15.99;87.54;101092.28;5007479;28;20476;-77
2021/08/19 04:53:04;;;;;;;14.07;6.97;;;;;;;16.05;87.09;101091.53;4996692;28;20314;-76
2021/08/19 04:55:30;;;;;;;13.60;7.15;;;;;;;16.04;87.19;101087.31;5007669;28;20034;-77
2021/08/19 04:57:55;;;;;;;10.57;6.82;;;;;;;16.00;87.45;101086.88;4983954;28;20034;-77
2021/08/19 05:00:21;;;;;;;14.75;6.78;;;;;;;15.98;87.79;101094.09;4987215;28;20045;-77
2021/08/19 05:02:46;;;;;;;11.68;6.50;;;;;;;16.03;87.53;101099.59;4986424;28;20121;-76
2021/08/19 05:05:12;;;;;;;13.90;6.47;;;;;;;15.99;87.62;101098.31;4989981;28;20038;-76
2021/08/19 05:07:37;;;;;;;13.85;6.95;;;;;;;15.96;87.90;101096.88;4987293;28;20052;-77
2021/08/19 05:10:03;;;;;;;14.35;7.00;;;;;;;16.04;87.13;101100.41;5013215;28;20033;-77
2021/08/19 05:12:28;;;;;;;13.13;7.35;;;;;;;16.09;87.30;101090.19;4991974;28;20033;-77
2021/08/19 05:14:54;;;;;;;10.15;6.07;;;;;;;16.00;87.50;101092.09;4979512;28;20034;-77
2021/08/19 05:17:19;;;;;;;9.65;7.00;;;;;;;16.08;86.96;101089.38;4995124;28;20049;-77
2021/08/19 05:19:45;;;;;;;15.25;7.38;;;;;;;16.02;87.65;101094.53;5004624;28;20044;-77
2021/08/19 05:22:10;;;;;;;12.70;6.95;;;;;;;15.99;87.71;101106.16;4981305;28;20491;-77
2021/08/19 05:24:36;;;;;;;13.18;6.82;;;;;;;15.96;87.67;101103.94;5000325;28;20034;-77
2021/08/19 05:27:02;;;;;;;14.30;7.85;;;;;;;15.99;87.71;101103.53;4983573;28;20306;-77
2021/08/19 05:29:27;;;;;;;15.02;7.55;;;;;;;16.03;87.57;101101.38;4986665;28;20025;-77
2021/08/19 05:31:52;;;;;;;13.40;7.40;;;;;;;15.99;87.58;101111.41;5010951;28;20083;-77
2021/08/19 05:34:18;;;;;;;12.38;7.22;;;;;;;16.01;87.52;101114.66;4998695;28;20558;-77
2021/08/19 05:36:44;;;;;;;15.15;6.82;;;;;;;16.01;87.88;101119.91;4989116;28;20069;-77
2021/08/19 05:39:10;;;;;;;13.00;7.25;;;;;;;16.03;87.46;101114.44;4998480;28;20427;-76
2021/08/19 05:41:36;;;;;;;13.27;7.32;;;;;;;16.04;87.25;101116.09;4995371;28;20052;-77
2021/08/19 05:44:01;;;;;;;14.10;7.65;;;;;;;16.04;87.72;101114.28;4992829;28;20033;-76
2021/08/19 05:46:27;;;;;;;14.38;8.20;;;;;;;16.08;87.21;101123.38;4975318;28;20033;-76
2021/08/19 05:48:52;;;;;;;10.32;6.63;;;;;;;16.13;87.11;101117.59;4990039;28;20144;-77
2021/08/19 05:51:18;;;;;;;13.10;6.82;;;;;;;16.10;87.42;101117.97;4975556;28;20039;-77
2021/08/19 05:53:43;;;;;;;13.82;7.30;;;;;;;16.11;87.48;101117.78;5005757;28;20034;-79
2021/08/19 05:56:09;;;;;;;18.02;7.43;;;;;;;16.09;87.47;101122.38;4989188;28;20410;-77
2021/08/19 05:58:34;;;;;;;10.82;7.05;;;;;;;16.11;87.67;101130.84;4997024;28;20052;-78
2021/08/19 06:01:00;;;;;;;12.52;6.90;;;;;;;16.09;87.51;101127.63;4967269;28;20112;-77
2021/08/19 06:03:25;;;;;;;16.30;7.53;;;;;;;16.09;87.61;101127.63;4998089;28;20044;-76
2021/08/19 06:05:51;;;;;;;13.48;7.30;;;;;;;16.12;87.50;101129.88;4980413;28;20041;-78
2021/08/19 06:08:17;;;;;;;19.92;8.52;;;;;;;16.21;86.76;101125.31;4980079;28;20491;-76
2021/08/19 06:10:42;;;;;;;13.88;7.63;;;;;;;16.24;86.77;101121.53;5012498;28;20100;-76
2021/08/19 06:13:08;;;;;;;15.55;7.93;;;;;;;16.18;86.44;101120.47;4997843;28;20041;-75
2021/08/19 06:15:34;;;;;;;17.50;9.07;;;;;;;16.28;85.94;101120.16;4977228;28;20048;-76
2021/08/19 06:17:59;;;;;;;15.85;7.80;;;;;;;16.27;86.17;101124.56;5011408;28;20553;-77
2021/08/19 06:20:25;;;;;;;21.48;8.55;;;;;;;16.44;85.58;101125.16;4995923;28;20069;-76
2021/08/19 06:22:52;;;;;;;18.85;8.40;;;;;;;16.44;85.74;101125.16;5007076;28;20152;-76
2021/08/19 06:25:18;;;;;;;16.65;8.18;;;;;;;16.32;86.13;101130.06;4998802;28;20045;-77
2021/08/19 06:27:44;;;;;;;16.85;8.10;;;;;;;16.32;86.30;101137.91;5000065;28;20075;-76
2021/08/19 06:30:10;;;;;;;17.75;9.70;;;;;;;16.44;85.50;101134.81;4987549;28;20558;-76
2021/08/19 06:32:37;;;;;;;14.68;7.40;;;;;;;16.37;85.92;101128.69;5016768;28;20149;-76
2021/08/19 06:35:03;;;;;;;17.67;9.88;;;;;;;16.41;85.95;101132.59;4996095;28;20550;-75
2021/08/19 06:37:29;;;;;;;19.25;9.20;;;;;;;16.39;85.65;101137.16;4991551;28;20037;-76
2021/08/19 06:39:54;;;;;;;16.83;9.90;;;;;;;16.40;85.77;101130.94;5006787;28;20399;-74
2021/08/19 06:42:20;;;;;;;19.92;9.23;;;;;;;16.41;85.68;101136.00;5018129;28;20040;-76
2021/08/19 06:44:45;;;;;;;18.83;9.23;;;;;;;16.42;85.56;101134.19;4988558;28;20474;-75
2021/08/19 06:47:10;;;;;;;14.43;9.13;;;;;;;16.44;85.99;101135.63;4981311;28;20029;-76
2021/08/19 06:49:36;;;;;;;17.65;9.05;;;;;;;16.54;85.38;101138.75;5011644;28;20045;-75
2021/08/19 06:52:02;;;;;;;16.52;8.90;;;;;;;16.53;85.41;101128.47;5000130;28;20038;-76
2021/08/19 06:54:28;;;;;;;22.52;8.95;;;;;;;16.61;85.40;101135.38;5013627;28;20036;-74
2021/08/19 06:56:53;;;;;;;18.63;9.30;;;;;;;16.65;84.98;101136.63;5018591;28;20038;-76
2021/08/19 06:59:19;;;;;;;23.23;10.63;;;;;;;16.65;85.17;101142.69;4996538;28;20494;-75
2021/08/19 07:01:44;;;;;;;21.33;10.10;;;;;;;16.64;84.75;101135.00;4994897;28;20034;-75
2021/08/19 07:04:10;;;;;;;17.25;10.63;;;;;;;16.72;84.57;101140.91;4992808;28;20110;-76
2021/08/19 07:06:35;;;;;;;15.98;9.80;;;;;;;16.87;84.31;101140.88;5001120;28;20034;-75
2021/08/19 07:09:01;;;;;;;18.35;9.18;;;;;;;16.80;84.45;101152.25;4983144;28;20034;-76
2021/08/19 07:11:26;;;;;;;14.90;8.90;;;;;;;16.77;84.82;101148.22;5003864;28;20037;-76
2021/08/19 07:13:52;;;;;;;17.23;10.23;;;;;;;16.93;84.34;101150.59;4979810;28;20520;-76
2021/08/19 07:16:17;;;;;;;16.65;10.48;;;;;;;16.99;84.03;101150.81;5001491;28;20041;-75
2021/08/19 07:18:43;;;;;;;25.08;10.43;;;;;;;16.91;84.17;101150.00;5002184;28;20041;-74
2021/08/19 07:21:08;;;;;;;15.93;9.27;;;;;;;16.91;84.08;101151.78;4981603;28;20030;-75
2021/08/19 07:23:34;;;;;;;16.88;10.13;;;;;;;16.90;83.71;101152.78;5006748;28;20030;-75
2021/08/19 07:25:59;;;;;;;17.45;9.88;;;;;;;16.80;83.48;101155.72;4990931;28;20046;-74
2021/08/19 07:28:26;;;;;;;17.42;10.30;;;;;;;16.77;83.28;101150.84;4990684;28;20038;-74
2021/08/19 07:30:51;;;;;;;15.23;9.60;;;;;;;16.71;83.23;101141.13;5004977;28;20088;-74
2021/08/19 07:33:19;;;;;;;17.65;10.23;;;;;;;16.72;83.39;101156.63;5008634;28;20044;-73
2021/08/19 07:35:46;;;;;;;18.42;10.27;;;;;;;16.76;83.71;101149.19;5005303;28;20064;-75
2021/08/19 07:38:15;;;;;;;19.10;9.93;;;;;;;16.76;84.13;101148.41;5008791;28;20542;-75
2021/08/19 07:40:40;;;;;;;15.57;9.18;;;;;;;16.83;83.25;101157.16;5006625;28;20511;-75
2021/08/19 07:43:06;;;;;;;17.20;8.90;;;;;;;16.74;83.84;101157.28;5010253;28;20479;-75
2021/08/19 07:45:31;;;;;;;17.48;9.60;;;;;;;16.84;83.61;101162.22;5007219;28;20526;-75
2021/08/19 07:47:57;;;;;;;18.45;9.45;;;;;;;16.85;83.49;101155.97;5001103;28;20076;-75
2021/08/19 07:50:22;;;;;;;13.50;9.00;;;;;;;16.88;83.51;101160.84;4995675;28;20037;-75
2021/08/19 07:52:48;;;;;;;18.58;9.65;;;;;;;16.91;83.08;101167.50;4997839;28;20156;-74
2021/08/19 07:55:14;;;;;;;18.33;9.40;;;;;;;16.83;83.57;101165.81;4989162;28;20061;-76
2021/08/19 07:57:48;;;;;;;17.08;10.00;;;;;;;16.86;84.00;101168.06;4984547;28;20037;-74
2021/08/19 08:00:19;;;;;;;15.80;8.60;;;;;;;16.79;83.71;101161.94;5002636;28;20052;-74
2021/08/19 08:02:45;;;;;;;15.38;9.35;;;;;;;16.85;83.46;101166.44;4989045;28;20080;-74
2021/08/19 08:05:10;;;;;;;17.80;9.02;;;;;;;16.83;83.22;101171.06;4982336;28;20022;-74
2021/08/19 08:07:36;;;;;;;19.13;9.88;;;;;;;16.87;83.02;101166.25;4982221;28;20426;-75
2021/08/19 08:10:04;;;;;;;16.50;9.07;;;;;;;16.97;82.77;101168.53;4984166;28;20030;-75
2021/08/19 08:12:30;;;;;;;20.48;9.60;;;;;;;16.89;82.85;101169.50;4993927;28;20515;-76
2021/08/19 08:14:55;;;;;;;18.27;9.02;;;;;;;16.96;83.29;101169.56;4979621;28;20034;-75
2021/08/19 08:17:20;;;;;;;15.80;9.85;;;;;;;17.01;82.47;101173.22;4996255;28;20042;-74
2021/08/19 08:19:47;;;;;;;23.85;10.55;;;;;;;16.97;82.47;101172.00;4978828;28;20530;-75
2021/08/19 08:22:13;;;;;;;20.75;10.80;;;;;;;17.00;81.68;101168.19;5001667;28;20034;-73
2021/08/19 08:24:39;;;;;;;20.33;9.77;;;;;;;17.08;82.22;101175.88;4986574;28;20065;-75
2021/08/19 08:27:05;;;;;;;14.95;9.10;;;;;;;17.11;82.35;101172.91;5002856;28;20056;-75
2021/08/19 08:29:31;;;;;;;18.83;10.75;;;;;;;17.10;81.42;101169.47;4977317;28;20503;-75
2021/08/19 08:32:01;;;;;;;15.20;8.77;;;;;;;17.17;81.60;101166.91;5005379;28;20063;-74
2021/08/19 08:34:26;;;;;;;18.10;9.52;;;;;;;17.33;81.03;101165.81;5009611;28;20041;-74
2021/08/19 08:36:53;;;;;;;24.95;8.77;;;;;;;17.35;80.59;101169.03;4992061;28;20064;-74
2021/08/19 08:39:19;;;;;;;13.57;8.65;;;;;;;17.28;80.35;101174.22;4996419;28;20537;-74
2021/08/19 08:41:45;;;;;;;15.35;9.40;;;;;;;17.36;80.91;101172.47;5000030;28;20089;-75
2021/08/19 08:44:11;;;;;;;14.40;8.73;;;;;;;17.35;80.26;101173.47;4988521;28;20034;-74
2021/08/19 08:46:37;;;;;;;13.75;8.55;;;;;;;17.54;80.00;101174.56;4999310;28;20034;-75
2021/08/19 08:49:03;;;;;;;17.38;9.68;;;;;;;17.67;79.44;101169.44;4969521;28;20038;-75
2021/08/19 08:51:30;;;;;;;15.85;7.82;;;;;;;17.80;79.28;101189.66;5010321;28;20033;-73
2021/08/19 08:53:55;;;;;;;16.13;8.15;;;;;;;17.82;78.22;101177.97;4998215;28;20049;-75
2021/08/19 08:56:21;;;;;;;13.73;8.50;;;;;;;17.96;77.50;101178.88;4995191;28;20072;-75
2021/08/19 08:58:46;;;;;;;19.35;8.70;;;;;;;17.98;77.57;101182.09;4986842;28;20064;-74
2021/08/19 09:01:12;;;;;;;13.85;7.03;;;;;;;18.19;76.69;101177.75;4985255;28;20061;-74
2021/08/19 09:03:37;;;;;;;12.45;7.78;;;;;;;18.31;75.83;101181.44;4996500;28;20053;-75
2021/08/19 09:06:03;;;;;;;14.50;7.25;;;;;;;18.24;76.72;101186.66;4984887;28;20271;-74
2021/08/19 09:08:29;;;;;;;8.00;5.95;;;;;;;18.24;76.02;101180.59;4969343;28;20145;-74
2021/08/19 09:10:57;;;;;;;14.25;6.57;;;;;;;18.28;74.96;101181.81;4995319;28;20480;-74
2021/08/19 09:13:27;;;;;;;11.68;6.80;;;;;;;18.16;75.63;101186.84;5007014;28;20042;-75
2021/08/19 09:15:53;;;;;;;11.40;6.15;;;;;;;18.13;75.04;101189.03;5001820;28;20335;-74
2021/08/19 09:18:33;;;;;;;15.20;7.00;;;;;;;18.05;75.94;101197.88;4997118;28;20455;-74
2021/08/19 09:21:00;;;;;;;13.48;6.82;;;;;;;18.07;76.26;101194.06;4983172;28;20064;-75
2021/08/19 09:23:26;;;;;;;15.13;6.68;;;;;;;18.07;75.60;101198.50;5004660;28;20042;-75
2021/08/19 09:25:52;;;;;;;12.68;6.40;;;;;;;18.01;75.64;101194.84;5009221;28;20048;-75
2021/08/19 09:28:23;;;;;;;10.55;6.63;;;;;;;18.10;75.15;101200.72;5009869;28;20109;-75
2021/08/19 09:30:57;;;;;;;11.50;5.75;;;;;;;18.31;74.74;101196.34;5007222;28;20063;-75
2021/08/19 09:33:26;;;;;;;10.07;5.43;;;;;;;18.37;74.59;101198.19;4993229;28;20128;-75
2021/08/19 09:35:55;;;;;;;9.95;5.50;;;;;;;18.43;72.79;101197.41;4991380;28;20510;-74
2021/08/19 09:38:23;;;;;;;8.77;5.43;;;;;;;18.60;72.39;101198.66;4998613;28;20041;-75
2021/08/19 09:41:04;;;;;;;7.68;5.22;;;;;;;18.84;71.99;101189.41;4996938;28;20046;-75
2021/08/19 09:43:51;;;;;;;7.07;4.60;;;;;;;18.88;72.16;101187.19;4996035;28;20045;-75
2021/08/19 09:46:34;;;;;;;14.48;6.70;;;;;;;18.85;69.89;101187.59;4998910;28;20033;-75
2021/08/19 09:49:20;;;;;;;;;;;;;;;18.86;71.45;101191.84;5001468;28;20053;-75
2021/08/19 09:52:02;;;;;;;9.55;4.95;;;;;;;18.82;71.43;101190.63;4999002;28;19921;-75
2021/08/19 09:54:30;;;;;;;7.93;4.82;;;;;;;18.66;71.86;101186.53;4993507;28;20116;-75
2021/08/19 09:56:55;;;;;;;8.23;4.00;;;;;;;18.68;72.01;101190.59;4992270;28;20075;-75
2021/08/19 09:59:22;;;;;;;6.47;4.22;;;;;;;18.75;72.23;101189.78;4993968;28;20034;-75
2021/08/19 10:01:51;;;;;;;10.50;3.97;;;;;;;18.75;71.71;101193.22;4977440;28;20511;-74
2021/08/19 10:04:16;;;;;;;7.13;4.47;;;;;;;18.79;71.47;101196.25;4992128;28;20034;-74
2021/08/19 10:06:42;;;;;;;7.22;3.60;;;;;;;18.71;70.89;101197.25;5000665;28;20116;-75
2021/08/19 10:09:07;;;;;;;7.20;3.63;;;;;;;18.78;70.53;101195.44;5011514;28;20037;-74
2021/08/19 10:11:33;;;;;;;6.45;3.47;;;;;;;18.78;71.27;101197.25;4987269;28;20025;-76
2021/08/19 10:14:02;;;;;;;9.20;3.90;;;;;;;18.67;70.86;101193.41;5007223;28;20042;-75
2021/08/19 10:16:30;;;;;;;9.52;4.30;;;;;;;18.68;70.88;101190.59;5006841;28;20041;-74
2021/08/19 10:19:00;;;;;;;7.00;4.07;;;;;;;18.66;71.66;101191.78;5007195;28;20092;-74
2021/08/19 10:21:28;;;;;;;8.55;3.00;;;;;;;18.60;71.57;101188.13;5007843;28;20037;-77
2021/08/19 10:23:55;;;;;;;5.88;3.30;;;;;;;18.53;72.34;101191.75;5013161;28;20555;-74
2021/08/19 10:26:21;;;;;;;7.72;3.35;;;;;;;18.55;71.14;101195.00;5006338;28;20077;-74
2021/08/19 10:28:55;;;;;;;6.70;3.15;;;;;;;18.48;71.43;101192.38;5000006;28;20673;-76
2021/08/19 10:31:39;;;;;;;5.00;2.70;;;;;;;18.38;72.45;101200.59;5000621;28;20033;-75
2021/08/19 10:34:07;;;;;;;7.75;2.72;;;;;;;18.34;71.49;101198.59;4994852;28;20088;-74
2021/08/19 10:36:38;;;;;;;6.75;2.70;;;;;;;18.38;72.06;101199.81;5000598;28;20049;-74
2021/08/19 10:39:19;;;;;;;5.45;3.22;;;;;;;18.35;71.67;101193.16;4994925;28;20432;-74
2021/08/19 10:41:49;;;;;;;7.32;2.60;;;;;;;18.41;71.48;101197.59;4989631;28;20146;-74
2021/08/19 10:44:15;;;;;;;4.53;2.95;;;;;;;18.33;71.67;101197.78;4997489;28;20374;-74
2021/08/19 10:46:49;;;;;;;7.93;2.78;;;;;;;18.40;71.69;101197.78;4988785;28;20492;-75
2021/08/19 10:49:33;;;;;;;7.53;2.35;;;;;;;18.28;71.81;101198.34;4999398;28;20270;-73
2021/08/19 10:52:08;;;;;;;5.43;3.25;;;;;;;18.40;71.48;101196.00;4968962;28;20068;-75
2021/08/19 10:54:46;;;;;;;5.93;3.33;;;;;;;18.28;72.10;101194.94;5016335;28;20112;-74
2021/08/19 10:57:25;;;;;;;6.22;2.50;;;;;;;18.27;71.90;101206.44;5013045;28;20495;-75
2021/08/19 11:00:06;;;;;;;5.88;2.38;;;;;;;18.41;71.95;101204.66;5011404;28;20093;-74
2021/08/19 11:02:47;;;;;;;6.82;2.88;;;;;;;18.42;71.13;101204.47;5015684;28;20033;-75
2021/08/19 11:05:33;;;;;;;5.45;2.88;;;;;;;18.38;71.29;101208.47;5009853;28;20132;-74
2021/08/19 11:08:00;;;;;;;4.72;3.08;;;;;;;18.45;72.25;101201.44;4990267;28;20045;-75
2021/08/19 11:10:36;;;;;;;5.13;2.53;;;;;;;18.36;72.06;101207.06;5002331;28;20088;-74
2021/08/19 11:13:10;;;;;;;7.05;3.47;;;;;;;18.23;72.15;101199.97;4994165;28;20068;-74
2021/08/19 11:15:45;;;;;;;6.43;3.25;;;;;;;18.31;72.61;101205.06;5005449;28;20029;-75
2021/08/19 11:18:26;;;;;;;4.38;2.40;;;;;;;18.43;72.43;101200.81;5007930;28;20573;-74
2021/08/19 11:20:51;;;;;;;7.78;3.38;;;;;;;18.69;71.50;101196.66;4999474;28;20025;-74